Time;durP1;ratioP1;P1;durP2;ratioP2;P2;SDS_P1;SDS_P2;PMS_P1;PMS_P2;Temp;Humidity;BMP_temperature;BMP_pressure;BME280_temperature;BME280_humidity;BME280_pressure;Samples;Min_cycle;Max_cycle;Signal;HPM_P1;HPM_P2
2023/07/22 00:00:00;;;;;;;10.63;5.28;;;15.10;99.90;;;;;;6188870;23;20024;-71
2023/07/22 00:02:25;;;;;;;11.75;5.32;;;15.10;99.90;;;;;;6240758;23;20028;-71
2023/07/22 00:04:52;;;;;;;10.93;5.60;;;15.10;99.90;;;;;;6213773;23;20020;-72
2023/07/22 00:07:18;;;;;;;14.20;5.85;;;15.10;99.90;;;;;;6241073;23;20020;-71
2023/07/22 00:09:43;;;;;;;10.32;6.22;;;15.00;99.90;;;;;;6241248;23;20507;-71
2023/07/22 00:12:10;;;;;;;7.97;5.05;;;15.00;99.90;;;;;;6240876;23;20024;-71
2023/07/22 00:14:40;;;;;;;11.57;5.65;;;15.00;99.90;;;;;;6241231;23;20016;-71
2023/07/22 00:17:06;;;;;;;11.30;5.53;;;15.00;99.90;;;;;;6240828;23;20032;-71
2023/07/22 00:19:31;;;;;;;12.98;5.50;;;15.10;99.90;;;;;;6240929;23;20090;-71
2023/07/22 00:21:57;;;;;;;13.02;5.93;;;15.00;99.90;;;;;;6240955;23;20051;-71
2023/07/22 00:24:23;;;;;;;9.30;5.63;;;15.00;99.90;;;;;;6213489;23;20039;-72
2023/07/22 00:26:49;;;;;;;12.90;5.82;;;15.00;99.90;;;;;;6213351;23;20321;-72
2023/07/22 00:29:16;;;;;;;11.60;5.57;;;15.00;99.90;;;;;;6240922;23;20020;-71
2023/07/22 00:31:42;;;;;;;14.32;5.72;;;15.00;99.90;;;;;;6240592;23;20012;-72
2023/07/22 00:34:08;;;;;;;10.80;5.50;;;14.90;99.90;;;;;;6240497;23;20463;-71
2023/07/22 00:36:34;;;;;;;12.18;5.78;;;14.90;99.90;;;;;;6213559;23;20024;-71
2023/07/22 00:39:01;;;;;;;14.25;5.95;;;14.80;99.90;;;;;;6240520;23;20099;-72
2023/07/22 00:41:27;;;;;;;13.73;6.45;;;14.80;99.90;;;;;;6240715;23;20367;-71
2023/07/22 00:43:52;;;;;;;11.05;5.63;;;14.90;99.90;;;;;;6188153;23;20445;-71
2023/07/22 00:46:18;;;;;;;10.45;5.68;;;14.80;99.90;;;;;;6213343;23;20020;-71
2023/07/22 00:48:45;;;;;;;10.57;5.63;;;14.80;99.90;;;;;;6213408;23;20024;-71
2023/07/22 00:51:11;;;;;;;11.40;5.60;;;14.80;99.90;;;;;;6240781;23;20349;-71
2023/07/22 00:53:36;;;;;;;10.00;5.50;;;14.70;99.90;;;;;;6240621;23;20015;-72
2023/07/22 00:56:02;;;;;;;9.10;5.20;;;14.60;99.90;;;;;;6240364;23;20024;-71
2023/07/22 00:58:28;;;;;;;10.57;6.15;;;14.60;99.90;;;;;;6213253;23;20055;-71
2023/07/22 01:00:54;;;;;;;11.07;5.70;;;14.60;99.90;;;;;;6240499;23;20040;-71
2023/07/22 01:03:20;;;;;;;15.50;6.57;;;14.60;99.90;;;;;;6240639;23;20016;-71
2023/07/22 01:05:47;;;;;;;14.82;6.82;;;14.60;99.90;;;;;;6242423;23;20500;-71
2023/07/22 01:08:13;;;;;;;9.93;5.82;;;14.50;99.90;;;;;;6215215;23;20024;-71
2023/07/22 01:10:39;;;;;;;11.93;6.68;;;14.50;99.90;;;;;;6242512;23;20059;-71
2023/07/22 01:13:05;;;;;;;12.20;6.68;;;14.40;99.90;;;;;;6215195;23;20020;-72
2023/07/22 01:15:32;;;;;;;12.85;6.30;;;14.40;99.90;;;;;;6242100;23;20019;-71
2023/07/22 01:18:01;;;;;;;14.73;6.22;;;14.40;99.90;;;;;;6241915;23;20517;-71
2023/07/22 01:20:28;;;;;;;15.70;5.80;;;14.40;99.90;;;;;;6215176;23;20016;-71
2023/07/22 01:22:54;;;;;;;12.70;6.03;;;14.50;99.90;;;;;;6242491;23;20020;-71
2023/07/22 01:25:21;;;;;;;11.23;5.82;;;14.40;99.90;;;;;;6242165;23;20027;-71
2023/07/22 01:27:48;;;;;;;13.60;6.22;;;14.40;99.90;;;;;;6242698;23;20313;-71
2023/07/22 01:30:14;;;;;;;12.90;6.50;;;14.40;99.90;;;;;;6242527;23;20012;-72
2023/07/22 01:32:40;;;;;;;10.95;6.15;;;14.40;99.90;;;;;;6241857;23;20022;-72
2023/07/22 01:35:07;;;;;;;11.18;6.05;;;14.40;99.90;;;;;;6242405;23;20024;-71
2023/07/22 01:37:33;;;;;;;10.60;6.28;;;14.40;99.90;;;;;;6214979;23;20549;-71
2023/07/22 01:39:59;;;;;;;14.18;6.53;;;14.40;99.90;;;;;;6214963;23;20638;-71
2023/07/22 01:42:25;;;;;;;12.82;6.50;;;14.50;99.90;;;;;;6241832;23;20360;-72
2023/07/22 01:44:51;;;;;;;11.95;6.90;;;14.50;99.90;;;;;;6242223;23;20035;-71
2023/07/22 01:47:17;;;;;;;15.40;6.63;;;14.50;99.90;;;;;;6241481;23;20091;-71
2023/07/22 01:49:44;;;;;;;11.25;6.22;;;14.40;99.90;;;;;;6214833;23;20111;-72
2023/07/22 01:52:10;;;;;;;14.07;7.45;;;14.40;99.90;;;;;;6242138;23;20016;-71
2023/07/22 01:54:35;;;;;;;12.02;6.20;;;14.40;99.90;;;;;;6214762;23;20330;-72
2023/07/22 01:57:01;;;;;;;12.88;6.28;;;14.40;99.90;;;;;;6214335;23;20059;-71
2023/07/22 01:59:27;;;;;;;12.73;6.93;;;14.40;99.90;;;;;;6214264;23;20078;-71
2023/07/22 02:01:52;;;;;;;17.10;7.57;;;14.40;99.90;;;;;;6242058;23;20119;-71
2023/07/22 02:04:18;;;;;;;18.00;6.57;;;14.40;99.90;;;;;;6214632;23;20364;-71
2023/07/22 02:06:44;;;;;;;13.65;7.50;;;14.40;99.90;;;;;;6241351;23;20155;-71
2023/07/22 02:09:13;;;;;;;12.13;6.32;;;14.40;99.90;;;;;;6242003;23;20027;-71
2023/07/22 02:11:39;;;;;;;16.40;6.80;;;14.40;99.90;;;;;;6241270;23;20346;-72
2023/07/22 02:14:06;;;;;;;13.57;6.95;;;14.40;99.90;;;;;;6241828;23;20020;-71
2023/07/22 02:16:39;;;;;;;13.30;7.07;;;14.40;99.90;;;;;;6241427;23;20020;-72
2023/07/22 02:19:05;;;;;;;13.35;6.97;;;14.30;99.90;;;;;;6241465;23;20482;-71
2023/07/22 02:21:30;;;;;;;12.75;6.97;;;14.30;99.90;;;;;;6240707;23;20016;-71
2023/07/22 02:23:56;;;;;;;13.65;6.25;;;14.30;99.90;;;;;;6241395;23;20013;-72
2023/07/22 02:26:22;;;;;;;11.93;6.18;;;14.30;99.90;;;;;;6213838;23;20048;-71
2023/07/22 02:28:48;;;;;;;12.80;6.40;;;14.30;99.90;;;;;;6241898;23;20493;-72
2023/07/22 02:31:13;;;;;;;12.38;6.70;;;14.30;99.90;;;;;;6214885;23;20098;-72
2023/07/22 02:33:39;;;;;;;14.02;7.45;;;14.30;99.90;;;;;;6214708;23;20027;-72
2023/07/22 02:36:05;;;;;;;12.77;7.05;;;14.30;99.90;;;;;;6242077;23;20031;-72
2023/07/22 02:38:31;;;;;;;14.70;7.65;;;14.30;99.90;;;;;;6214188;23;20027;-71
2023/07/22 02:41:05;;;;;;;13.18;6.47;;;14.30;99.90;;;;;;6241586;23;20018;-71
2023/07/22 02:43:31;;;;;;;19.20;7.20;;;14.30;99.90;;;;;;6214327;23;20054;-71
2023/07/22 02:45:57;;;;;;;16.40;7.90;;;14.30;99.90;;;;;;6213931;23;20028;-72
2023/07/22 02:48:23;;;;;;;16.38;7.45;;;14.30;99.90;;;;;;6214124;23;20345;-71
2023/07/22 02:50:49;;;;;;;13.00;7.43;;;14.30;99.90;;;;;;6242014;23;20020;-72
2023/07/22 02:53:15;;;;;;;14.20;7.13;;;14.20;99.90;;;;;;6240945;23;20030;-72
2023/07/22 02:55:41;;;;;;;13.30;7.57;;;14.20;99.90;;;;;;6241401;23;20091;-71
2023/07/22 02:58:06;;;;;;;17.17;7.72;;;14.30;99.90;;;;;;6240896;23;20096;-71
2023/07/22 03:00:32;;;;;;;15.00;8.07;;;14.30;99.90;;;;;;6214080;23;20233;-71
2023/07/22 03:03:00;;;;;;;17.13;7.88;;;14.30;99.90;;;;;;6241434;23;20135;-72
2023/07/22 03:05:30;;;;;;;16.17;8.27;;;14.20;99.90;;;;;;6241066;23;20064;-71
2023/07/22 03:07:57;;;;;;;17.02;8.02;;;14.20;99.90;;;;;;6214022;23;20094;-72
2023/07/22 03:10:25;;;;;;;14.80;7.88;;;14.20;99.90;;;;;;6241004;23;20336;-71
2023/07/22 03:12:54;;;;;;;20.50;8.82;;;14.20;99.90;;;;;;6214090;23;20360;-72
2023/07/22 03:15:22;;;;;;;14.68;7.22;;;14.30;99.90;;;;;;6241138;23;20020;-72
2023/07/22 03:17:48;;;;;;;15.07;8.38;;;14.30;99.90;;;;;;6214093;23;20020;-72
2023/07/22 03:20:14;;;;;;;16.80;8.18;;;14.30;99.90;;;;;;6241362;23;20027;-72
2023/07/22 03:22:43;;;;;;;17.95;8.57;;;14.30;99.90;;;;;;6241002;23;20016;-71
2023/07/22 03:25:14;;;;;;;16.02;8.65;;;14.30;99.90;;;;;;6240658;23;20012;-72
2023/07/22 03:27:40;;;;;;;17.60;8.00;;;14.30;99.90;;;;;;6213760;23;20024;-71
2023/07/22 03:30:07;;;;;;;16.80;8.00;;;14.30;99.90;;;;;;6240987;23;20106;-72
2023/07/22 03:32:34;;;;;;;14.55;7.70;;;14.30;99.90;;;;;;6214173;23;20026;-72
2023/07/22 03:35:00;;;;;;;18.02;8.73;;;14.30;99.90;;;;;;6241184;23;20743;-71
2023/07/22 03:37:25;;;;;;;18.02;7.85;;;14.20;99.90;;;;;;6240823;23;20020;-71
2023/07/22 03:39:51;;;;;;;15.60;7.80;;;14.20;99.90;;;;;;6241042;23;20027;-72
2023/07/22 03:42:17;;;;;;;16.95;8.18;;;14.30;99.90;;;;;;6241186;23;20561;-71
2023/07/22 03:44:42;;;;;;;15.00;8.20;;;14.30;99.90;;;;;;6240840;23;20047;-72
2023/07/22 03:47:08;;;;;;;18.63;8.70;;;14.40;99.90;;;;;;6213951;23;20060;-72
2023/07/22 03:49:34;;;;;;;17.42;8.77;;;14.30;99.90;;;;;;6214177;23;20424;-72
2023/07/22 03:51:59;;;;;;;14.45;7.35;;;14.30;99.90;;;;;;6214071;23;20028;-71
2023/07/22 03:54:25;;;;;;;16.83;8.63;;;14.30;99.90;;;;;;6214045;23;20048;-71
2023/07/22 03:56:51;;;;;;;15.80;8.10;;;14.30;99.90;;;;;;6241064;23;20420;-72
2023/07/22 03:59:16;;;;;;;12.80;7.53;;;14.30;99.90;;;;;;6214095;23;20024;-72
2023/07/22 04:01:43;;;;;;;17.42;7.90;;;14.30;99.90;;;;;;6240784;23;20099;-72
2023/07/22 04:04:08;;;;;;;16.65;7.28;;;14.30;99.90;;;;;;6213912;23;20024;-72
2023/07/22 04:06:34;;;;;;;14.70;7.72;;;14.40;99.90;;;;;;6214830;23;20059;-71
2023/07/22 04:09:00;;;;;;;18.92;9.73;;;14.40;99.90;;;;;;6214373;23;20424;-72
2023/07/22 04:11:27;;;;;;;13.95;7.97;;;14.40;99.90;;;;;;6213924;23;20031;-71
2023/07/22 04:13:53;;;;;;;14.75;8.10;;;14.40;99.90;;;;;;6241123;23;20629;-72
2023/07/22 04:16:19;;;;;;;15.70;8.02;;;14.40;99.90;;;;;;6241136;23;20444;-71
2023/07/22 04:18:44;;;;;;;11.52;7.25;;;14.40;99.90;;;;;;6213438;23;20035;-71
2023/07/22 04:21:10;;;;;;;15.85;8.02;;;14.50;99.90;;;;;;6213614;23;20133;-72
2023/07/22 04:23:37;;;;;;;14.85;6.80;;;14.40;99.90;;;;;;6213146;23;20070;-71
2023/07/22 04:26:04;;;;;;;16.00;7.30;;;14.30;99.90;;;;;;6240439;23;20020;-72
2023/07/22 04:28:30;;;;;;;13.85;7.72;;;14.40;99.90;;;;;;6213487;23;20020;-71
2023/07/22 04:30:58;;;;;;;13.07;8.00;;;14.50;99.90;;;;;;6240358;23;20766;-72
2023/07/22 04:33:24;;;;;;;15.35;7.88;;;14.40;99.90;;;;;;6213362;23;20019;-71
2023/07/22 04:35:53;;;;;;;18.58;7.13;;;14.40;99.90;;;;;;6240760;23;20030;-72
2023/07/22 04:38:18;;;;;;;14.50;7.07;;;14.50;99.90;;;;;;6213658;23;20028;-72
2023/07/22 04:40:44;;;;;;;14.63;7.30;;;14.50;99.90;;;;;;6215432;23;20658;-71
2023/07/22 04:43:10;;;;;;;14.75;7.90;;;14.50;99.90;;;;;;6215097;23;20459;-72
2023/07/22 04:45:36;;;;;;;14.60;7.78;;;14.50;99.90;;;;;;6242352;23;20024;-71
2023/07/22 04:48:02;;;;;;;16.77;8.52;;;14.50;99.90;;;;;;6215316;23;20095;-72
2023/07/22 04:50:28;;;;;;;16.95;7.38;;;14.50;99.90;;;;;;6215222;23;20020;-71
2023/07/22 04:52:54;;;;;;;16.98;7.45;;;14.50;99.90;;;;;;6214790;23;20020;-71
2023/07/22 04:55:20;;;;;;;12.13;7.22;;;14.60;99.90;;;;;;6215020;23;20459;-71
2023/07/22 04:57:46;;;;;;;17.98;7.90;;;14.60;99.90;;;;;;6214831;23;20024;-72
2023/07/22 05:00:16;;;;;;;17.73;7.88;;;14.60;99.90;;;;;;6242084;23;20051;-72
2023/07/22 05:02:45;;;;;;;13.90;7.32;;;14.60;99.90;;;;;;6215514;23;20024;-71
2023/07/22 05:05:12;;;;;;;14.15;7.70;;;14.70;99.90;;;;;;6214950;23;20051;-71
2023/07/22 05:07:37;;;;;;;15.30;7.63;;;14.70;99.90;;;;;;6214717;23;20090;-72
2023/07/22 05:10:03;;;;;;;12.82;6.97;;;14.70;99.90;;;;;;6241904;23;20052;-72
2023/07/22 05:12:29;;;;;;;15.02;7.72;;;14.70;99.90;;;;;;6214867;23;20020;-72
2023/07/22 05:14:55;;;;;;;16.25;7.90;;;14.60;99.90;;;;;;6215191;23;20410;-72
2023/07/22 05:17:21;;;;;;;13.18;7.70;;;14.60;99.90;;;;;;6242179;23;20028;-72
2023/07/22 05:19:48;;;;;;;12.77;7.75;;;14.60;99.90;;;;;;6215052;23;20024;-72
2023/07/22 05:22:14;;;;;;;17.70;8.82;;;14.70;99.90;;;;;;6241641;23;20020;-72
2023/07/22 05:24:40;;;;;;;13.35;8.85;;;14.70;99.90;;;;;;6214804;23;20030;-72
2023/07/22 05:27:06;;;;;;;16.92;7.80;;;14.70;99.90;;;;;;6214800;23;20020;-71
2023/07/22 05:29:31;;;;;;;15.93;8.45;;;14.70;99.90;;;;;;6242283;23;20048;-71
2023/07/22 05:31:57;;;;;;;17.77;8.13;;;14.70;99.90;;;;;;6189859;23;20024;-71
2023/07/22 05:34:23;;;;;;;13.32;7.75;;;14.70;99.90;;;;;;6214512;23;20027;-71
2023/07/22 05:36:48;;;;;;;18.60;8.85;;;14.70;99.90;;;;;;6189928;23;20052;-71
2023/07/22 05:39:17;;;;;;;16.70;9.15;;;14.70;99.90;;;;;;6214808;23;20020;-71
2023/07/22 05:41:43;;;;;;;15.10;8.55;;;14.70;99.90;;;;;;6214758;23;20066;-71
2023/07/22 05:44:08;;;;;;;20.17;9.60;;;14.70;99.90;;;;;;6242084;23;20097;-71
2023/07/22 05:46:34;;;;;;;16.02;8.75;;;14.70;99.90;;;;;;6241589;23;20043;-71
2023/07/22 05:49:00;;;;;;;18.75;9.82;;;14.70;99.90;;;;;;6214581;23;20024;-71
2023/07/22 05:51:26;;;;;;;16.38;8.82;;;14.70;99.90;;;;;;6214971;23;20452;-71
2023/07/22 05:53:52;;;;;;;16.83;9.60;;;14.70;99.90;;;;;;6242388;23;20039;-72
2023/07/22 05:56:17;;;;;;;22.90;9.15;;;14.70;99.90;;;;;;6215021;23;20694;-71
2023/07/22 05:58:43;;;;;;;16.75;9.90;;;14.80;99.90;;;;;;6214525;23;20062;-72
2023/07/22 06:01:10;;;;;;;18.75;10.07;;;14.80;99.90;;;;;;6241449;23;20016;-71
2023/07/22 06:03:36;;;;;;;16.83;8.85;;;14.70;99.90;;;;;;6214365;23;20039;-71
2023/07/22 06:06:01;;;;;;;17.30;10.45;;;14.80;99.90;;;;;;6241457;23;20620;-72
2023/07/22 06:08:27;;;;;;;15.63;9.68;;;14.90;99.90;;;;;;6214183;23;20042;-71
2023/07/22 06:10:53;;;;;;;16.52;9.80;;;14.80;99.90;;;;;;6243226;23;20444;-71
2023/07/22 06:13:18;;;;;;;16.95;9.85;;;14.90;99.90;;;;;;6216852;23;20020;-71
2023/07/22 06:15:44;;;;;;;18.55;10.88;;;14.90;99.90;;;;;;6218038;23;20027;-71
2023/07/22 06:18:10;;;;;;;21.60;10.80;;;14.90;99.90;;;;;;6192712;23;20032;-71
2023/07/22 06:20:36;;;;;;;20.60;11.05;;;14.90;99.90;;;;;;6245310;23;20020;-71
2023/07/22 06:23:02;;;;;;;20.00;11.00;;;15.00;99.90;;;;;;6245761;23;20016;-71
2023/07/22 06:25:28;;;;;;;24.85;12.30;;;14.90;99.90;;;;;;6218270;23;20020;-72
2023/07/22 06:27:54;;;;;;;21.08;10.82;;;15.00;99.90;;;;;;6217718;23;20024;-71
2023/07/22 06:30:20;;;;;;;26.10;11.77;;;15.00;99.90;;;;;;6214667;23;20020;-71
2023/07/22 06:32:45;;;;;;;23.80;12.38;;;15.00;99.90;;;;;;6241547;23;20020;-72
2023/07/22 06:35:11;;;;;;;23.85;12.60;;;15.10;99.90;;;;;;6214446;23;20476;-71
2023/07/22 06:37:37;;;;;;;22.92;12.63;;;15.10;99.90;;;;;;6213220;23;20089;-70
2023/07/22 06:40:03;;;;;;;22.77;11.70;;;15.20;99.90;;;;;;6214194;23;20016;-70
2023/07/22 06:42:29;;;;;;;23.55;13.13;;;15.20;99.90;;;;;;6213522;23;20077;-70
2023/07/22 06:44:55;;;;;;;22.38;11.82;;;15.20;99.90;;;;;;6241789;23;20099;-70
2023/07/22 06:47:21;;;;;;;20.85;11.23;;;15.20;99.90;;;;;;6241058;23;20529;-70
2023/07/22 06:49:47;;;;;;;22.58;11.57;;;15.20;99.90;;;;;;6241494;23;20103;-70
2023/07/22 06:52:13;;;;;;;28.48;13.55;;;15.30;99.90;;;;;;6214902;23;20024;-70
2023/07/22 06:54:38;;;;;;;26.73;12.38;;;15.20;99.90;;;;;;6242144;23;20020;-70
2023/07/22 06:57:06;;;;;;;24.48;12.57;;;15.20;99.90;;;;;;6241359;23;20045;-70
2023/07/22 06:59:32;;;;;;;23.45;12.75;;;15.30;99.90;;;;;;6214954;23;20352;-69
2023/07/22 07:01:57;;;;;;;28.80;13.07;;;15.30;99.90;;;;;;6213913;23;20094;-70
2023/07/22 07:04:23;;;;;;;27.30;13.25;;;15.40;99.90;;;;;;6241646;23;20058;-70
2023/07/22 07:06:52;;;;;;;26.23;13.15;;;15.30;99.90;;;;;;6213994;23;20030;-75
2023/07/22 07:09:18;;;;;;;27.92;13.52;;;15.40;99.90;;;;;;6213717;23;20024;-70
2023/07/22 07:11:44;;;;;;;23.73;13.45;;;15.80;99.90;;;;;;6241460;23;20027;-68
2023/07/22 07:14:10;;;;;;;23.75;12.70;;;15.70;99.90;;;;;;6241499;23;20647;-68
2023/07/22 07:16:35;;;;;;;26.33;12.60;;;15.70;99.90;;;;;;6241049;23;20096;-68
2023/07/22 07:19:01;;;;;;;24.90;12.43;;;15.80;99.90;;;;;;6241073;23;20023;-68
2023/07/22 07:21:28;;;;;;;25.02;12.68;;;15.80;99.90;;;;;;6241430;23;20012;-68
2023/07/22 07:23:54;;;;;;;24.95;13.98;;;15.90;99.90;;;;;;6214195;23;20448;-68
2023/07/22 07:26:21;;;;;;;31.30;13.77;;;16.00;99.90;;;;;;6241209;23;20024;-68
2023/07/22 07:28:48;;;;;;;27.15;14.52;;;16.00;99.90;;;;;;6241217;23;20019;-68
2023/07/22 07:31:13;;;;;;;28.10;14.20;;;16.00;99.90;;;;;;6164099;23;20060;-68
2023/07/22 07:33:39;;;;;;;26.33;13.35;;;16.10;99.90;;;;;;6241341;23;20036;-69
2023/07/22 07:36:05;;;;;;;28.42;13.77;;;16.00;99.90;;;;;;6241258;23;20024;-69
2023/07/22 07:38:31;;;;;;;24.63;12.93;;;16.10;99.90;;;;;;6241329;23;20066;-68
2023/07/22 07:41:03;;;;;;;21.30;12.02;;;16.20;99.90;;;;;;6241450;23;20016;-68
2023/07/22 07:43:29;;;;;;;26.27;11.27;;;16.30;99.90;;;;;;6241527;23;20344;-69
2023/07/22 07:46:14;;;;;;;23.05;12.88;;;16.30;99.90;;;;;;6241041;23;20075;-68
2023/07/22 07:48:40;;;;;;;23.42;13.20;;;16.30;99.90;;;;;;6241788;23;20016;-69
2023/07/22 07:51:06;;;;;;;23.17;12.27;;;16.30;99.90;;;;;;6241215;23;20016;-69
2023/07/22 07:53:32;;;;;;;24.73;11.73;;;16.40;99.90;;;;;;6214595;23;20016;-68
2023/07/22 07:55:57;;;;;;;24.10;12.38;;;16.40;99.90;;;;;;6241266;23;20463;-68
2023/07/22 07:58:23;;;;;;;21.95;11.88;;;16.40;99.90;;;;;;6240798;23;20031;-69
2023/07/22 08:00:48;;;;;;;20.33;11.18;;;16.50;99.90;;;;;;6240914;23;20020;-69
2023/07/22 08:03:15;;;;;;;23.92;12.15;;;16.60;99.90;;;;;;6241131;23;20020;-69
2023/07/22 08:05:40;;;;;;;26.90;12.50;;;16.70;99.90;;;;;;6241224;23;20043;-69
2023/07/22 08:08:06;;;;;;;20.10;11.18;;;16.70;99.90;;;;;;6213969;23;20020;-69
2023/07/22 08:10:32;;;;;;;20.02;11.48;;;16.70;99.90;;;;;;6241148;23;20026;-69
2023/07/22 08:12:58;;;;;;;23.30;12.50;;;16.80;99.90;;;;;;6240940;23;20767;-69
2023/07/22 08:15:24;;;;;;;21.38;10.73;;;16.90;99.90;;;;;;6243173;23;20015;-68
2023/07/22 08:17:49;;;;;;;19.20;10.93;;;16.90;99.90;;;;;;6243253;23;20115;-69
2023/07/22 08:20:15;;;;;;;18.75;10.43;;;16.90;99.90;;;;;;6243478;23;20491;-69
2023/07/22 08:22:40;;;;;;;19.10;10.60;;;17.00;99.90;;;;;;6243041;23;20024;-69
2023/07/22 08:25:07;;;;;;;20.98;9.77;;;17.10;99.90;;;;;;6243198;23;20018;-69
2023/07/22 08:27:33;;;;;;;18.63;10.52;;;17.20;99.90;;;;;;6241903;23;20020;-69
2023/07/22 08:29:58;;;;;;;20.45;10.50;;;17.20;99.90;;;;;;6242840;23;20027;-69
2023/07/22 08:32:24;;;;;;;21.25;10.65;;;17.30;99.90;;;;;;6243082;23;20470;-69
2023/07/22 08:34:50;;;;;;;18.10;9.88;;;17.30;99.90;;;;;;6243214;23;20020;-69
2023/07/22 08:37:16;;;;;;;21.27;10.77;;;17.40;99.90;;;;;;6243300;23;20352;-69
2023/07/22 08:39:42;;;;;;;20.10;9.98;;;17.40;99.90;;;;;;6243341;23;20024;-69
2023/07/22 08:42:11;;;;;;;18.08;9.65;;;17.40;99.90;;;;;;6243202;23;20452;-69
2023/07/22 08:44:40;;;;;;;21.27;9.75;;;17.50;99.90;;;;;;6215799;23;20071;-69
2023/07/22 08:47:10;;;;;;;14.98;9.43;;;17.60;99.90;;;;;;6217088;23;20125;-69
2023/07/22 08:49:35;;;;;;;19.80;10.07;;;17.80;99.90;;;;;;6243326;23;20024;-69
2023/07/22 08:52:01;;;;;;;15.35;9.02;;;17.90;99.90;;;;;;6242697;23;20347;-69
2023/07/22 08:54:28;;;;;;;14.40;9.45;;;18.00;99.90;;;;;;6242804;23;20012;-69
2023/07/22 08:56:54;;;;;;;18.73;9.02;;;18.00;99.90;;;;;;6242728;23;20020;-68
2023/07/22 08:59:20;;;;;;;14.15;8.38;;;18.10;99.90;;;;;;6215468;23;20055;-69
2023/07/22 09:01:48;;;;;;;17.73;9.20;;;18.10;99.90;;;;;;6242689;23;20024;-69
2023/07/22 09:04:14;;;;;;;13.73;8.48;;;18.10;99.90;;;;;;6242637;23;20024;-69
2023/07/22 09:06:42;;;;;;;15.85;9.40;;;18.10;99.90;;;;;;6243059;23;20020;-69
2023/07/22 09:09:09;;;;;;;16.27;8.98;;;18.10;99.90;;;;;;6216164;23;20321;-69
2023/07/22 09:11:35;;;;;;;14.48;8.27;;;18.10;99.90;;;;;;6215774;23;20024;-69
2023/07/22 09:14:04;;;;;;;13.90;7.75;;;18.10;99.90;;;;;;6214890;23;20055;-72
2023/07/22 09:16:31;;;;;;;11.27;7.30;;;18.20;99.90;;;;;;6215132;23;20055;-73
2023/07/22 09:18:59;;;;;;;12.18;7.28;;;18.30;99.90;;;;;;6242040;23;20056;-73
2023/07/22 09:21:25;;;;;;;13.60;7.28;;;18.40;99.90;;;;;;6242998;23;20360;-71
2023/07/22 09:23:51;;;;;;;13.07;7.75;;;18.40;99.90;;;;;;6243122;23;20100;-69
2023/07/22 09:26:18;;;;;;;12.75;7.70;;;18.50;99.90;;;;;;6242605;23;20383;-69
2023/07/22 09:28:57;;;;;;;10.65;6.32;;;18.50;99.90;;;;;;6242739;23;20339;-69
2023/07/22 09:31:26;;;;;;;12.85;6.63;;;18.50;99.90;;;;;;6242771;23;20027;-70
2023/07/22 09:33:55;;;;;;;10.05;6.25;;;18.40;99.90;;;;;;6215626;23;20051;-70
2023/07/22 09:36:21;;;;;;;10.05;6.57;;;18.30;99.90;;;;;;6241071;23;20341;-69
2023/07/22 09:39:14;;;;;;;12.43;7.60;;;18.30;99.90;;;;;;6215464;23;20054;-69
2023/07/22 09:41:41;;;;;;;14.80;7.63;;;18.20;99.90;;;;;;6236292;23;20391;-66
2023/07/22 09:44:10;;;;;;;18.15;8.00;;;18.10;99.90;;;;;;6242679;23;20023;-66
2023/07/22 09:46:36;;;;;;;22.30;8.85;;;18.10;99.90;;;;;;6242473;23;20023;-66
2023/07/22 09:49:07;;;;;;;16.80;7.05;;;18.10;99.90;;;;;;6242233;23;20471;-67
2023/07/22 09:51:40;;;;;;;12.33;7.50;;;18.00;99.90;;;;;;6242182;23;20034;-67
2023/07/22 09:54:06;;;;;;;;;;;17.90;99.90;;;;;;6242738;23;20076;-67
2023/07/22 09:56:43;;;;;;;12.18;6.68;;;17.70;99.90;;;;;;6242277;23;20286;-68
2023/07/22 09:59:10;;;;;;;12.25;5.50;;;17.60;99.90;;;;;;6215595;23;20323;-67
2023/07/22 10:01:39;;;;;;;8.80;6.22;;;17.50;99.90;;;;;;6242307;23;20069;-68
2023/07/22 10:04:05;;;;;;;9.00;5.35;;;17.50;99.90;;;;;;6242475;23;20187;-67
2023/07/22 10:06:32;;;;;;;11.43;5.45;;;17.30;99.90;;;;;;6242315;23;20107;-67
2023/07/22 10:09:08;;;;;;;8.70;5.50;;;17.30;99.90;;;;;;6241234;23;20016;-66
2023/07/22 10:11:36;;;;;;;8.70;4.43;;;17.50;99.90;;;;;;6242012;23;20016;-66
2023/07/22 10:14:03;;;;;;;6.68;4.72;;;17.50;99.90;;;;;;6241916;23;20013;-66
2023/07/22 10:16:29;;;;;;;9.02;5.00;;;17.60;99.90;;;;;;6241919;23;20099;-66
2023/07/22 10:18:57;;;;;;;10.63;5.30;;;17.60;99.90;;;;;;6242343;23;20024;-66
2023/07/22 10:21:23;;;;;;;10.55;5.28;;;17.70;99.90;;;;;;6242193;23;20012;-67
2023/07/22 10:23:51;;;;;;;10.05;4.45;;;17.50;99.90;;;;;;6242257;23;20027;-66
2023/07/22 10:26:18;;;;;;;12.20;5.10;;;17.50;99.90;;;;;;6241466;23;20028;-66
2023/07/22 10:28:46;;;;;;;9.93;5.63;;;17.40;99.90;;;;;;6242141;23;20023;-67
2023/07/22 10:31:12;;;;;;;8.00;5.47;;;17.40;99.90;;;;;;6242238;23;20024;-67
2023/07/22 10:33:38;;;;;;;7.53;5.10;;;17.40;99.90;;;;;;6242139;23;20331;-67
2023/07/22 10:36:09;;;;;;;10.68;6.00;;;17.40;99.90;;;;;;6214294;23;20028;-67
2023/07/22 10:38:35;;;;;;;10.93;5.32;;;17.40;99.90;;;;;;6241675;23;20028;-67
2023/07/22 10:41:10;;;;;;;7.97;5.57;;;17.50;99.90;;;;;;6241571;23;20020;-67
2023/07/22 10:43:36;;;;;;;8.18;5.30;;;17.50;99.90;;;;;;6242018;23;20098;-67
2023/07/22 10:46:12;;;;;;;9.05;6.50;;;17.50;99.90;;;;;;6241885;23;20428;-67
2023/07/22 10:48:42;;;;;;;8.68;5.93;;;17.50;99.90;;;;;;6241589;23;20451;-67
2023/07/22 10:51:15;;;;;;;11.10;7.03;;;17.40;99.90;;;;;;6242117;23;20096;-69
2023/07/22 10:53:46;;;;;;;10.90;6.30;;;17.50;99.90;;;;;;6214642;23;20028;-70
2023/07/22 10:56:21;;;;;;;11.48;6.63;;;17.40;99.90;;;;;;6242191;23;20341;-69
2023/07/22 10:58:46;;;;;;;12.38;6.95;;;17.40;99.90;;;;;;6214723;23;20035;-69
2023/07/22 11:01:30;;;;;;;12.77;6.95;;;17.30;99.90;;;;;;6241683;23;20016;-69
2023/07/22 11:04:15;;;;;;;16.30;7.63;;;17.30;99.90;;;;;;6241274;23;20016;-69
2023/07/22 11:06:44;;;;;;;11.52;7.18;;;17.30;99.90;;;;;;6214123;23;20027;-69
2023/07/22 11:09:45;;;;;;;12.23;7.47;;;17.30;99.90;;;;;;6241280;23;20023;-69
2023/07/22 11:12:18;;;;;;;12.57;7.40;;;17.40;99.90;;;;;;6136078;23;20459;-69
2023/07/22 11:14:49;;;;;;;11.00;7.22;;;17.40;99.90;;;;;;6214433;23;20054;-69
2023/07/22 11:17:17;;;;;;;15.73;8.05;;;17.50;99.90;;;;;;6241687;23;20388;-71
2023/07/22 11:19:43;;;;;;;18.65;9.02;;;17.50;99.90;;;;;;6214249;23;20107;-70
2023/07/22 11:22:10;;;;;;;16.63;9.02;;;17.50;99.90;;;;;;6214404;23;20027;-69
2023/07/22 11:24:36;;;;;;;14.65;8.50;;;17.50;99.90;;;;;;6213283;23;20062;-68
2023/07/22 11:27:08;;;;;;;14.02;7.70;;;17.60;99.90;;;;;;6214012;23;20028;-69
2023/07/22 11:29:34;;;;;;;16.52;8.23;;;17.50;99.90;;;;;;6241126;23;20024;-71
2023/07/22 11:32:01;;;;;;;13.63;8.48;;;17.50;99.90;;;;;;6240893;23;20023;-70
2023/07/22 11:34:27;;;;;;;14.25;7.65;;;17.50;99.90;;;;;;6241180;23;20020;-69
2023/07/22 11:36:54;;;;;;;11.57;8.00;;;17.50;99.90;;;;;;6241060;23;20416;-69
2023/07/22 11:39:32;;;;;;;11.38;6.97;;;17.50;99.90;;;;;;6240872;23;20463;-68
2023/07/22 11:42:03;;;;;;;7.45;5.93;;;17.40;99.90;;;;;;6241327;23;20023;-68
2023/07/22 11:44:30;;;;;;;7.68;5.90;;;17.40;99.90;;;;;;6213777;23;20042;-69
2023/07/22 11:47:01;;;;;;;8.27;6.15;;;17.30;99.90;;;;;;6241087;23;20027;-68
2023/07/22 11:49:39;;;;;;;9.37;6.30;;;17.30;99.90;;;;;;6241211;23;20023;-68
2023/07/22 11:52:08;;;;;;;12.57;6.28;;;17.30;99.90;;;;;;6240616;23;20235;-67
2023/07/22 11:54:36;;;;;;;12.98;7.15;;;17.30;99.90;;;;;;6241148;23;20346;-67
2023/07/22 11:57:18;;;;;;;9.77;6.93;;;17.30;99.90;;;;;;6213881;23;20103;-67
2023/07/22 11:59:45;;;;;;;;;;;17.20;99.90;;;;;;6241856;23;20400;-67
2023/07/22 12:02:18;;;;;;;11.32;6.78;;;17.30;99.90;;;;;;6241020;23;19915;-67
2023/07/22 12:04:55;;;;;;;9.68;7.93;;;17.30;99.90;;;;;;6241308;23;20078;-67
2023/07/22 12:07:28;;;;;;;11.35;7.18;;;17.30;99.90;;;;;;6240989;23;20099;-67
2023/07/22 12:09:56;;;;;;;10.15;7.00;;;17.30;99.90;;;;;;6240877;23;20062;-67
2023/07/22 12:12:32;;;;;;;9.15;7.35;;;17.30;99.90;;;;;;6240941;23;20020;-67
2023/07/22 12:15:04;;;;;;;10.23;6.95;;;17.30;99.90;;;;;;6241057;23;20023;-67
2023/07/22 12:17:30;;;;;;;9.20;6.53;;;17.30;99.90;;;;;;6240885;23;20031;-67
2023/07/22 12:19:58;;;;;;;10.07;7.00;;;17.30;99.90;;;;;;6241036;23;20024;-67
2023/07/22 12:22:24;;;;;;;11.10;7.22;;;17.30;99.90;;;;;;6240711;23;20023;-67
2023/07/22 12:24:50;;;;;;;8.15;6.30;;;17.30;99.90;;;;;;6240787;23;20020;-67
2023/07/22 12:27:15;;;;;;;9.57;5.80;;;17.30;99.90;;;;;;6239888;23;20020;-69
2023/07/22 12:29:41;;;;;;;10.23;6.78;;;17.30;99.90;;;;;;6238245;23;20092;-66
2023/07/22 12:32:07;;;;;;;8.85;6.68;;;17.30;99.90;;;;;;6240516;23;20016;-65
2023/07/22 12:34:33;;;;;;;7.90;6.45;;;17.30;99.90;;;;;;6240482;23;20028;-65